sensor_id;sensor_type;location;lat;lon;timestamp;temperature;humidity
59857;DHT22;45733;52.668;6.860;2024-02-21T00:02:11;12.00;99.90
59857;DHT22;45733;52.668;6.860;2024-02-21T00:04:37;12.10;99.90
59857;DHT22;45733;52.668;6.860;2024-02-21T00:07:04;12.10;99.90
59857;DHT22;45733;52.668;6.860;2024-02-21T00:09:30;12.10;99.90
59857;DHT22;45733;52.668;6.860;2024-02-21T00:11:55;12.20;99.90
59857;DHT22;45733;52.668;6.860;2024-02-21T00:14:21;12.20;99.90
59857;DHT22;45733;52.668;6.860;2024-02-21T00:16:47;12.20;99.90
59857;DHT22;45733;52.668;6.860;2024-02-21T00:19:13;12.10;99.90
59857;DHT22;45733;52.668;6.860;2024-02-21T00:21:40;12.20;99.90
59857;DHT22;45733;52.668;6.860;2024-02-21T00:24:06;12.20;99.90
59857;DHT22;45733;52.668;6.860;2024-02-21T00:26:31;12.10;99.90
59857;DHT22;45733;52.668;6.860;2024-02-21T00:28:57;12.30;99.90
59857;DHT22;45733;52.668;6.860;2024-02-21T00:31:23;12.20;99.90
59857;DHT22;45733;52.668;6.860;2024-02-21T00:33:49;12.30;99.90
59857;DHT22;45733;52.668;6.860;2024-02-21T00:36:14;12.30;99.90
59857;DHT22;45733;52.668;6.860;2024-02-21T00:38:40;12.20;99.90
59857;DHT22;45733;52.668;6.860;2024-02-21T00:41:06;12.20;99.90
59857;DHT22;45733;52.668;6.860;2024-02-21T00:43:32;12.30;99.90
59857;DHT22;45733;52.668;6.860;2024-02-21T00:45:58;12.30;99.90
59857;DHT22;45733;52.668;6.860;2024-02-21T00:48:23;12.30;99.90
59857;DHT22;45733;52.668;6.860;2024-02-21T00:50:49;12.30;99.90
59857;DHT22;45733;52.668;6.860;2024-02-21T00:53:15;12.20;99.90
59857;DHT22;45733;52.668;6.860;2024-02-21T00:55:40;12.20;99.90
59857;DHT22;45733;52.668;6.860;2024-02-21T00:58:06;12.30;99.90
59857;DHT22;45733;52.668;6.860;2024-02-21T01:00:32;12.20;99.90
59857;DHT22;45733;52.668;6.860;2024-02-21T01:02:57;12.30;99.90
59857;DHT22;45733;52.668;6.860;2024-02-21T01:05:23;12.20;99.90
59857;DHT22;45733;52.668;6.860;2024-02-21T01:07:49;12.30;99.90
59857;DHT22;45733;52.668;6.860;2024-02-21T01:10:15;12.30;99.90
59857;DHT22;45733;52.668;6.860;2024-02-21T01:12:40;12.30;99.90
59857;DHT22;45733;52.668;6.860;2024-02-21T01:15:06;12.40;99.90
59857;DHT22;45733;52.668;6.860;2024-02-21T01:17:32;12.30;99.90
59857;DHT22;45733;52.668;6.860;2024-02-21T01:19:58;12.20;99.90
59857;DHT22;45733;52.668;6.860;2024-02-21T01:22:24;12.20;99.90
59857;DHT22;45733;52.668;6.860;2024-02-21T01:24:50;12.20;99.90
59857;DHT22;45733;52.668;6.860;2024-02-21T01:27:15;12.20;99.90
59857;DHT22;45733;52.668;6.860;2024-02-21T01:29:42;12.20;99.90
59857;DHT22;45733;52.668;6.860;2024-02-21T01:32:07;12.20;99.90
59857;DHT22;45733;52.668;6.860;2024-02-21T01:34:33;12.20;99.90
59857;DHT22;45733;52.668;6.860;2024-02-21T01:36:59;12.20;99.90
59857;DHT22;45733;52.668;6.860;2024-02-21T01:39:25;12.20;99.90
59857;DHT22;45733;52.668;6.860;2024-02-21T01:41:50;12.20;99.90
59857;DHT22;45733;52.668;6.860;2024-02-21T01:44:16;12.30;99.90
59857;DHT22;45733;52.668;6.860;2024-02-21T01:46:42;12.30;99.90
59857;DHT22;45733;52.668;6.860;2024-02-21T01:49:08;12.20;99.90
59857;DHT22;45733;52.668;6.860;2024-02-21T01:51:33;12.20;99.90
59857;DHT22;45733;52.668;6.860;2024-02-21T01:54:00;12.10;99.90
59857;DHT22;45733;52.668;6.860;2024-02-21T01:56:25;12.30;99.90
59857;DHT22;45733;52.668;6.860;2024-02-21T01:58:51;12.30;99.90
59857;DHT22;45733;52.668;6.860;2024-02-21T02:01:17;12.20;99.90
59857;DHT22;45733;52.668;6.860;2024-02-21T02:03:45;12.20;99.90
59857;DHT22;45733;52.668;6.860;2024-02-21T02:06:12;12.30;99.90
59857;DHT22;45733;52.668;6.860;2024-02-21T02:08:38;12.20;99.90
59857;DHT22;45733;52.668;6.860;2024-02-21T02:11:04;12.30;99.90
59857;DHT22;45733;52.668;6.860;2024-02-21T02:13:30;12.30;99.90
59857;DHT22;45733;52.668;6.860;2024-02-21T02:15:55;12.30;99.90
59857;DHT22;45733;52.668;6.860;2024-02-21T02:18:21;12.30;99.90
59857;DHT22;45733;52.668;6.860;2024-02-21T02:20:47;12.30;99.90
59857;DHT22;45733;52.668;6.860;2024-02-21T02:25:52;12.20;99.90
59857;DHT22;45733;52.668;6.860;2024-02-21T02:28:18;12.20;99.90
59857;DHT22;45733;52.668;6.860;2024-02-21T02:30:45;12.40;99.90
59857;DHT22;45733;52.668;6.860;2024-02-21T02:33:11;12.20;99.90
59857;DHT22;45733;52.668;6.860;2024-02-21T02:35:36;12.40;99.90
59857;DHT22;45733;52.668;6.860;2024-02-21T02:38:03;12.30;99.90
59857;DHT22;45733;52.668;6.860;2024-02-21T02:40:29;12.30;99.90
59857;DHT22;45733;52.668;6.860;2024-02-21T02:42:55;12.30;99.90
59857;DHT22;45733;52.668;6.860;2024-02-21T02:45:22;12.30;99.90
59857;DHT22;45733;52.668;6.860;2024-02-21T02:47:55;12.30;99.90
59857;DHT22;45733;52.668;6.860;2024-02-21T02:50:24;12.10;99.90
59857;DHT22;45733;52.668;6.860;2024-02-21T02:52:50;12.20;99.90
59857;DHT22;45733;52.668;6.860;2024-02-21T02:55:16;12.20;99.90
59857;DHT22;45733;52.668;6.860;2024-02-21T02:57:42;12.10;99.90
59857;DHT22;45733;52.668;6.860;2024-02-21T03:00:09;12.10;99.90
59857;DHT22;45733;52.668;6.860;2024-02-21T03:02:37;12.00;99.90
59857;DHT22;45733;52.668;6.860;2024-02-21T03:05:17;12.00;99.90
59857;DHT22;45733;52.668;6.860;2024-02-21T03:07:44;12.10;99.90
59857;DHT22;45733;52.668;6.860;2024-02-21T03:10:10;12.20;99.90
59857;DHT22;45733;52.668;6.860;2024-02-21T03:12:36;12.20;99.90
59857;DHT22;45733;52.668;6.860;2024-02-21T03:15:03;12.00;99.90
59857;DHT22;45733;52.668;6.860;2024-02-21T03:17:30;12.20;99.90
59857;DHT22;45733;52.668;6.860;2024-02-21T03:19:55;11.90;99.90
59857;DHT22;45733;52.668;6.860;2024-02-21T03:22:22;12.10;99.90
59857;DHT22;45733;52.668;6.860;2024-02-21T03:24:48;12.20;99.90
59857;DHT22;45733;52.668;6.860;2024-02-21T03:27:13;11.90;99.90
59857;DHT22;45733;52.668;6.860;2024-02-21T03:29:39;12.00;99.90
59857;DHT22;45733;52.668;6.860;2024-02-21T03:32:05;12.00;99.90
59857;DHT22;45733;52.668;6.860;2024-02-21T03:34:30;11.80;99.90
59857;DHT22;45733;52.668;6.860;2024-02-21T03:36:56;11.90;99.90
59857;DHT22;45733;52.668;6.860;2024-02-21T03:39:22;12.00;99.90
59857;DHT22;45733;52.668;6.860;2024-02-21T03:41:48;11.70;99.90
59857;DHT22;45733;52.668;6.860;2024-02-21T03:44:14;11.70;99.90
59857;DHT22;45733;52.668;6.860;2024-02-21T03:46:40;12.20;99.90
59857;DHT22;45733;52.668;6.860;2024-02-21T03:49:05;12.20;99.90
59857;DHT22;45733;52.668;6.860;2024-02-21T03:51:31;11.70;99.90
59857;DHT22;45733;52.668;6.860;2024-02-21T03:53:57;11.70;99.90
59857;DHT22;45733;52.668;6.860;2024-02-21T03:56:22;12.10;99.90
59857;DHT22;45733;52.668;6.860;2024-02-21T03:58:48;12.10;99.90
59857;DHT22;45733;52.668;6.860;2024-02-21T04:01:15;11.70;99.90
59857;DHT22;45733;52.668;6.860;2024-02-21T04:03:44;12.00;99.90
59857;DHT22;45733;52.668;6.860;2024-02-21T04:06:10;11.70;99.90
59857;DHT22;45733;52.668;6.860;2024-02-21T04:08:36;12.20;99.90
59857;DHT22;45733;52.668;6.860;2024-02-21T04:11:02;12.20;99.90
59857;DHT22;45733;52.668;6.860;2024-02-21T04:13:27;12.20;99.90
59857;DHT22;45733;52.668;6.860;2024-02-21T04:15:56;12.10;99.90
59857;DHT22;45733;52.668;6.860;2024-02-21T04:18:22;12.10;99.90
59857;DHT22;45733;52.668;6.860;2024-02-21T04:20:51;11.90;99.90
59857;DHT22;45733;52.668;6.860;2024-02-21T04:23:17;11.80;99.90
59857;DHT22;45733;52.668;6.860;2024-02-21T04:25:43;12.20;99.90
59857;DHT22;45733;52.668;6.860;2024-02-21T04:28:09;11.80;99.90
59857;DHT22;45733;52.668;6.860;2024-02-21T04:30:34;12.20;99.90
59857;DHT22;45733;52.668;6.860;2024-02-21T04:33:00;11.90;99.90
59857;DHT22;45733;52.668;6.860;2024-02-21T04:35:26;12.10;99.90
59857;DHT22;45733;52.668;6.860;2024-02-21T04:37:51;11.90;99.90
59857;DHT22;45733;52.668;6.860;2024-02-21T04:40:17;11.70;99.90
59857;DHT22;45733;52.668;6.860;2024-02-21T04:42:44;12.20;99.90
59857;DHT22;45733;52.668;6.860;2024-02-21T04:45:10;12.20;99.90
59857;DHT22;45733;52.668;6.860;2024-02-21T04:47:35;12.20;99.90
59857;DHT22;45733;52.668;6.860;2024-02-21T04:50:01;11.80;99.90
59857;DHT22;45733;52.668;6.860;2024-02-21T04:52:27;11.80;99.90
59857;DHT22;45733;52.668;6.860;2024-02-21T04:54:52;12.00;99.90
59857;DHT22;45733;52.668;6.860;2024-02-21T04:57:18;12.10;99.90
59857;DHT22;45733;52.668;6.860;2024-02-21T04:59:44;12.10;99.90
59857;DHT22;45733;52.668;6.860;2024-02-21T05:02:11;11.80;99.90
59857;DHT22;45733;52.668;6.860;2024-02-21T05:04:36;11.80;99.90
59857;DHT22;45733;52.668;6.860;2024-02-21T05:07:04;11.90;99.90
59857;DHT22;45733;52.668;6.860;2024-02-21T05:09:30;11.90;99.90
59857;DHT22;45733;52.668;6.860;2024-02-21T05:11:55;12.20;99.90
59857;DHT22;45733;52.668;6.860;2024-02-21T05:14:21;11.80;99.90
59857;DHT22;45733;52.668;6.860;2024-02-21T05:16:47;11.90;99.90
59857;DHT22;45733;52.668;6.860;2024-02-21T05:19:13;12.20;99.90
59857;DHT22;45733;52.668;6.860;2024-02-21T05:21:38;12.20;99.90
59857;DHT22;45733;52.668;6.860;2024-02-21T05:24:04;12.00;99.90
59857;DHT22;45733;52.668;6.860;2024-02-21T05:26:30;12.00;99.90
59857;DHT22;45733;52.668;6.860;2024-02-21T05:28:56;12.00;99.90
59857;DHT22;45733;52.668;6.860;2024-02-21T05:31:22;12.00;99.90
59857;DHT22;45733;52.668;6.860;2024-02-21T05:33:47;12.20;99.90
59857;DHT22;45733;52.668;6.860;2024-02-21T05:36:13;12.00;99.90
59857;DHT22;45733;52.668;6.860;2024-02-21T05:38:39;12.30;99.90
59857;DHT22;45733;52.668;6.860;2024-02-21T05:41:05;12.20;99.90
59857;DHT22;45733;52.668;6.860;2024-02-21T05:43:31;12.20;99.90
59857;DHT22;45733;52.668;6.860;2024-02-21T05:45:57;12.10;99.90
59857;DHT22;45733;52.668;6.860;2024-02-21T05:48:23;12.20;99.90
59857;DHT22;45733;52.668;6.860;2024-02-21T05:50:49;12.20;99.90
59857;DHT22;45733;52.668;6.860;2024-02-21T05:53:15;11.90;99.90
59857;DHT22;45733;52.668;6.860;2024-02-21T05:55:41;12.00;99.90
59857;DHT22;45733;52.668;6.860;2024-02-21T05:58:07;12.10;99.90
59857;DHT22;45733;52.668;6.860;2024-02-21T06:00:36;12.20;99.90
59857;DHT22;45733;52.668;6.860;2024-02-21T06:03:02;12.10;99.90
59857;DHT22;45733;52.668;6.860;2024-02-21T06:05:28;12.00;99.90
59857;DHT22;45733;52.668;6.860;2024-02-21T06:07:53;12.10;99.90
59857;DHT22;45733;52.668;6.860;2024-02-21T06:10:19;12.10;99.90
59857;DHT22;45733;52.668;6.860;2024-02-21T06:12:45;12.10;99.90
59857;DHT22;45733;52.668;6.860;2024-02-21T06:15:11;12.00;99.90
59857;DHT22;45733;52.668;6.860;2024-02-21T06:17:36;12.10;99.90
59857;DHT22;45733;52.668;6.860;2024-02-21T06:20:02;12.20;99.90
59857;DHT22;45733;52.668;6.860;2024-02-21T06:22:30;12.00;99.90
59857;DHT22;45733;52.668;6.860;2024-02-21T06:24:55;12.20;99.90
59857;DHT22;45733;52.668;6.860;2024-02-21T06:27:21;12.20;99.90
59857;DHT22;45733;52.668;6.860;2024-02-21T06:29:47;12.20;99.90
59857;DHT22;45733;52.668;6.860;2024-02-21T06:32:12;12.20;99.90
59857;DHT22;45733;52.668;6.860;2024-02-21T06:34:38;12.00;99.90
59857;DHT22;45733;52.668;6.860;2024-02-21T06:37:04;12.10;99.90
59857;DHT22;45733;52.668;6.860;2024-02-21T06:39:30;12.20;99.90
59857;DHT22;45733;52.668;6.860;2024-02-21T06:41:55;12.00;99.90
59857;DHT22;45733;52.668;6.860;2024-02-21T06:44:22;12.00;99.90
59857;DHT22;45733;52.668;6.860;2024-02-21T06:46:48;12.20;99.90
59857;DHT22;45733;52.668;6.860;2024-02-21T06:49:13;12.00;99.90
59857;DHT22;45733;52.668;6.860;2024-02-21T06:51:47;12.00;99.90
59857;DHT22;45733;52.668;6.860;2024-02-21T06:54:12;11.90;99.90
59857;DHT22;45733;52.668;6.860;2024-02-21T06:56:40;12.20;99.90
59857;DHT22;45733;52.668;6.860;2024-02-21T06:59:06;12.00;99.90
59857;DHT22;45733;52.668;6.860;2024-02-21T07:01:31;12.10;99.90
59857;DHT22;45733;52.668;6.860;2024-02-21T07:03:57;12.10;99.90
59857;DHT22;45733;52.668;6.860;2024-02-21T07:06:23;11.90;99.90
59857;DHT22;45733;52.668;6.860;2024-02-21T07:08:49;11.90;99.90
59857;DHT22;45733;52.668;6.860;2024-02-21T07:11:15;11.90;99.90
59857;DHT22;45733;52.668;6.860;2024-02-21T07:13:41;12.10;99.90
59857;DHT22;45733;52.668;6.860;2024-02-21T07:16:07;11.90;99.90
59857;DHT22;45733;52.668;6.860;2024-02-21T07:18:32;12.00;99.90
59857;DHT22;45733;52.668;6.860;2024-02-21T07:20:58;11.80;99.90
59857;DHT22;45733;52.668;6.860;2024-02-21T07:23:24;11.90;99.90
59857;DHT22;45733;52.668;6.860;2024-02-21T07:25:50;11.90;99.90
59857;DHT22;45733;52.668;6.860;2024-02-21T07:28:16;12.00;99.90
59857;DHT22;45733;52.668;6.860;2024-02-21T07:30:43;12.00;99.90
59857;DHT22;45733;52.668;6.860;2024-02-21T07:33:08;11.90;99.90
59857;DHT22;45733;52.668;6.860;2024-02-21T07:35:35;12.10;99.90
59857;DHT22;45733;52.668;6.860;2024-02-21T07:38:04;12.10;99.90
59857;DHT22;45733;52.668;6.860;2024-02-21T07:40:30;12.10;99.90
59857;DHT22;45733;52.668;6.860;2024-02-21T07:42:56;12.00;99.90
59857;DHT22;45733;52.668;6.860;2024-02-21T07:45:22;12.00;99.90
59857;DHT22;45733;52.668;6.860;2024-02-21T07:47:50;12.10;99.90
59857;DHT22;45733;52.668;6.860;2024-02-21T07:50:16;12.10;99.90
59857;DHT22;45733;52.668;6.860;2024-02-21T07:52:42;12.10;99.90
59857;DHT22;45733;52.668;6.860;2024-02-21T07:55:08;12.10;99.90
59857;DHT22;45733;52.668;6.860;2024-02-21T07:57:36;12.00;99.90
59857;DHT22;45733;52.668;6.860;2024-02-21T08:00:02;12.10;99.90
59857;DHT22;45733;52.668;6.860;2024-02-21T08:02:29;12.10;99.90
59857;DHT22;45733;52.668;6.860;2024-02-21T08:04:55;12.00;99.90
59857;DHT22;45733;52.668;6.860;2024-02-21T08:07:21;12.10;99.90
59857;DHT22;45733;52.668;6.860;2024-02-21T08:09:46;12.10;99.90
59857;DHT22;45733;52.668;6.860;2024-02-21T08:12:12;12.10;99.90
59857;DHT22;45733;52.668;6.860;2024-02-21T08:14:38;12.00;99.90
59857;DHT22;45733;52.668;6.860;2024-02-21T08:17:03;12.00;99.90
59857;DHT22;45733;52.668;6.860;2024-02-21T08:19:29;12.10;99.90
59857;DHT22;45733;52.668;6.860;2024-02-21T08:21:55;12.00;99.90
59857;DHT22;45733;52.668;6.860;2024-02-21T08:24:21;12.00;99.90
59857;DHT22;45733;52.668;6.860;2024-02-21T08:26:48;12.10;99.90
59857;DHT22;45733;52.668;6.860;2024-02-21T08:29:14;12.10;99.90
59857;DHT22;45733;52.668;6.860;2024-02-21T08:31:39;12.20;99.90
59857;DHT22;45733;52.668;6.860;2024-02-21T08:34:05;12.10;99.90
59857;DHT22;45733;52.668;6.860;2024-02-21T08:36:31;12.10;99.90
59857;DHT22;45733;52.668;6.860;2024-02-21T08:38:58;12.20;99.90
59857;DHT22;45733;52.668;6.860;2024-02-21T08:41:24;12.20;99.90
59857;DHT22;45733;52.668;6.860;2024-02-21T08:43:53;12.10;99.90
59857;DHT22;45733;52.668;6.860;2024-02-21T08:46:20;12.20;99.90
59857;DHT22;45733;52.668;6.860;2024-02-21T08:48:46;12.20;99.90
59857;DHT22;45733;52.668;6.860;2024-02-21T08:51:15;12.30;99.90
59857;DHT22;45733;52.668;6.860;2024-02-21T08:53:41;12.40;99.90
59857;DHT22;45733;52.668;6.860;2024-02-21T08:56:07;12.40;99.90
59857;DHT22;45733;52.668;6.860;2024-02-21T08:58:34;12.40;99.90
59857;DHT22;45733;52.668;6.860;2024-02-21T09:01:00;12.30;99.90
59857;DHT22;45733;52.668;6.860;2024-02-21T09:03:26;12.30;77.30
59857;DHT22;45733;52.668;6.860;2024-02-21T09:05:52;12.40;1.00
59857;DHT22;45733;52.668;6.860;2024-02-21T09:08:18;12.30;1.00
59857;DHT22;45733;52.668;6.860;2024-02-21T09:10:44;12.30;1.00
59857;DHT22;45733;52.668;6.860;2024-02-21T09:13:10;12.40;1.00
59857;DHT22;45733;52.668;6.860;2024-02-21T09:15:35;12.40;99.90
59857;DHT22;45733;52.668;6.860;2024-02-21T09:18:01;12.40;99.90
59857;DHT22;45733;52.668;6.860;2024-02-21T09:20:28;12.50;99.90
59857;DHT22;45733;52.668;6.860;2024-02-21T09:22:54;12.40;99.90
59857;DHT22;45733;52.668;6.860;2024-02-21T09:25:20;12.40;99.90
59857;DHT22;45733;52.668;6.860;2024-02-21T09:27:46;12.50;99.90
59857;DHT22;45733;52.668;6.860;2024-02-21T09:30:12;12.50;99.90
59857;DHT22;45733;52.668;6.860;2024-02-21T09:32:38;12.50;99.90
59857;DHT22;45733;52.668;6.860;2024-02-21T09:35:04;12.50;99.90
59857;DHT22;45733;52.668;6.860;2024-02-21T09:37:33;12.50;50.50
59857;DHT22;45733;52.668;6.860;2024-02-21T09:39:59;12.60;92.20
59857;DHT22;45733;52.668;6.860;2024-02-21T09:42:37;12.50;1.00
59857;DHT22;45733;52.668;6.860;2024-02-21T09:45:24;12.60;1.00
59857;DHT22;45733;52.668;6.860;2024-02-21T09:50:45;12.50;1.00
59857;DHT22;45733;52.668;6.860;2024-02-21T09:53:13;12.50;1.00
59857;DHT22;45733;52.668;6.860;2024-02-21T09:55:40;12.60;99.90
59857;DHT22;45733;52.668;6.860;2024-02-21T09:58:07;12.60;99.90
59857;DHT22;45733;52.668;6.860;2024-02-21T10:00:35;12.70;99.90
59857;DHT22;45733;52.668;6.860;2024-02-21T10:03:01;12.60;99.90
59857;DHT22;45733;52.668;6.860;2024-02-21T10:05:26;12.70;99.90
59857;DHT22;45733;52.668;6.860;2024-02-21T10:07:53;12.60;99.90
59857;DHT22;45733;52.668;6.860;2024-02-21T10:10:19;12.70;99.90
59857;DHT22;45733;52.668;6.860;2024-02-21T10:12:51;12.70;99.90
59857;DHT22;45733;52.668;6.860;2024-02-21T10:15:21;12.70;99.90
59857;DHT22;45733;52.668;6.860;2024-02-21T10:18:00;12.70;99.90
59857;DHT22;45733;52.668;6.860;2024-02-21T10:20:26;12.90;99.90
59857;DHT22;45733;52.668;6.860;2024-02-21T10:23:03;12.90;99.90
59857;DHT22;45733;52.668;6.860;2024-02-21T10:25:36;12.90;53.60
59857;DHT22;45733;52.668;6.860;2024-02-21T10:28:12;13.00;20.80
59857;DHT22;45733;52.668;6.860;2024-02-21T10:30:38;13.00;1.00
59857;DHT22;45733;52.668;6.860;2024-02-21T10:33:05;13.10;1.00
59857;DHT22;45733;52.668;6.860;2024-02-21T10:35:32;13.10;1.00
59857;DHT22;45733;52.668;6.860;2024-02-21T10:37:59;13.00;1.00
59857;DHT22;45733;52.668;6.860;2024-02-21T10:40:26;13.00;99.90
59857;DHT22;45733;52.668;6.860;2024-02-21T10:42:59;13.20;1.00
59857;DHT22;45733;52.668;6.860;2024-02-21T10:45:30;13.20;1.00
59857;DHT22;45733;52.668;6.860;2024-02-21T10:53:31;13.30;99.90
59857;DHT22;45733;52.668;6.860;2024-02-21T10:56:31;13.40;99.90
59857;DHT22;45733;52.668;6.860;2024-02-21T10:59:05;13.50;99.90
59857;DHT22;45733;52.668;6.860;2024-02-21T11:01:31;13.50;99.90
59857;DHT22;45733;52.668;6.860;2024-02-21T11:04:00;13.50;99.90
59857;DHT22;45733;52.668;6.860;2024-02-21T11:06:27;13.40;99.90
59857;DHT22;45733;52.668;6.860;2024-02-21T11:09:06;13.30;99.90
59857;DHT22;45733;52.668;6.860;2024-02-21T11:11:43;13.20;99.90
59857;DHT22;45733;52.668;6.860;2024-02-21T11:14:18;13.20;99.90
59857;DHT22;45733;52.668;6.860;2024-02-21T11:16:45;13.20;99.90
59857;DHT22;45733;52.668;6.860;2024-02-21T11:19:22;13.20;99.90
59857;DHT22;45733;52.668;6.860;2024-02-21T11:21:48;13.20;99.90
59857;DHT22;45733;52.668;6.860;2024-02-21T11:24:25;13.30;99.90
59857;DHT22;45733;52.668;6.860;2024-02-21T11:26:51;13.30;99.90
59857;DHT22;45733;52.668;6.860;2024-02-21T11:29:23;13.40;99.90
59857;DHT22;45733;52.668;6.860;2024-02-21T11:31:50;13.40;99.90
59857;DHT22;45733;52.668;6.860;2024-02-21T11:34:20;13.40;99.90
59857;DHT22;45733;52.668;6.860;2024-02-21T11:36:52;13.30;99.90
59857;DHT22;45733;52.668;6.860;2024-02-21T11:39:25;13.40;99.90
59857;DHT22;45733;52.668;6.860;2024-02-21T11:42:04;13.40;99.90
59857;DHT22;45733;52.668;6.860;2024-02-21T11:44:32;13.40;99.90
59857;DHT22;45733;52.668;6.860;2024-02-21T11:46:58;13.40;99.90
59857;DHT22;45733;52.668;6.860;2024-02-21T11:49:30;13.50;97.90
59857;DHT22;45733;52.668;6.860;2024-02-21T11:52:00;13.50;22.40
59857;DHT22;45733;52.668;6.860;2024-02-21T11:54:27;13.50;32.80
59857;DHT22;45733;52.668;6.860;2024-02-21T11:56:53;13.50;3.30
59857;DHT22;45733;52.668;6.860;2024-02-21T11:59:19;13.50;1.00
59857;DHT22;45733;52.668;6.860;2024-02-21T12:01:45;13.50;1.00
59857;DHT22;45733;52.668;6.860;2024-02-21T12:04:10;13.50;1.00
59857;DHT22;45733;52.668;6.860;2024-02-21T12:06:36;13.50;1.00
59857;DHT22;45733;52.668;6.860;2024-02-21T12:09:02;13.50;1.00
59857;DHT22;45733;52.668;6.860;2024-02-21T12:11:28;13.30;1.00
59857;DHT22;45733;52.668;6.860;2024-02-21T12:14:03;13.40;1.00
59857;DHT22;45733;52.668;6.860;2024-02-21T12:16:33;13.40;1.00
59857;DHT22;45733;52.668;6.860;2024-02-21T12:19:00;13.40;1.00
59857;DHT22;45733;52.668;6.860;2024-02-21T12:21:27;13.30;1.00
59857;DHT22;45733;52.668;6.860;2024-02-21T12:23:55;13.30;1.00
59857;DHT22;45733;52.668;6.860;2024-02-21T12:26:22;13.40;1.00
59857;DHT22;45733;52.668;6.860;2024-02-21T12:28:47;13.30;1.00
59857;DHT22;45733;52.668;6.860;2024-02-21T12:31:13;13.30;1.00
59857;DHT22;45733;52.668;6.860;2024-02-21T12:33:39;13.30;1.00
59857;DHT22;45733;52.668;6.860;2024-02-21T12:36:05;13.30;1.00
59857;DHT22;45733;52.668;6.860;2024-02-21T12:38:31;13.40;1.00
59857;DHT22;45733;52.668;6.860;2024-02-21T12:40:57;13.40;35.80
59857;DHT22;45733;52.668;6.860;2024-02-21T12:43:23;13.30;1.00
59857;DHT22;45733;52.668;6.860;2024-02-21T12:45:49;13.10;1.00
59857;DHT22;45733;52.668;6.860;2024-02-21T12:48:15;13.00;1.00
59857;DHT22;45733;52.668;6.860;2024-02-21T12:50:48;13.00;57.30
59857;DHT22;45733;52.668;6.860;2024-02-21T12:53:15;12.90;99.90
59857;DHT22;45733;52.668;6.860;2024-02-21T12:55:41;12.90;99.90
59857;DHT22;45733;52.668;6.860;2024-02-21T12:58:07;12.90;99.90
59857;DHT22;45733;52.668;6.860;2024-02-21T13:00:33;12.90;99.90
59857;DHT22;45733;52.668;6.860;2024-02-21T13:03:00;12.80;99.90
59857;DHT22;45733;52.668;6.860;2024-02-21T13:05:26;12.80;99.90
59857;DHT22;45733;52.668;6.860;2024-02-21T13:07:56;12.80;99.90
59857;DHT22;45733;52.668;6.860;2024-02-21T13:10:21;12.90;99.90
59857;DHT22;45733;52.668;6.860;2024-02-21T13:12:47;12.90;99.90
59857;DHT22;45733;52.668;6.860;2024-02-21T13:15:13;12.90;99.90
59857;DHT22;45733;52.668;6.860;2024-02-21T13:17:38;13.00;99.90
59857;DHT22;45733;52.668;6.860;2024-02-21T13:20:05;13.00;99.90
59857;DHT22;45733;52.668;6.860;2024-02-21T13:22:31;13.00;99.90
59857;DHT22;45733;52.668;6.860;2024-02-21T13:24:57;13.00;99.90
59857;DHT22;45733;52.668;6.860;2024-02-21T13:27:22;13.10;99.90
59857;DHT22;45733;52.668;6.860;2024-02-21T13:29:48;13.00;99.90
59857;DHT22;45733;52.668;6.860;2024-02-21T13:32:14;13.10;99.90
59857;DHT22;45733;52.668;6.860;2024-02-21T13:34:41;13.30;99.90
59857;DHT22;45733;52.668;6.860;2024-02-21T13:37:07;13.30;99.90
59857;DHT22;45733;52.668;6.860;2024-02-21T13:39:35;13.30;3.30
59857;DHT22;45733;52.668;6.860;2024-02-21T13:42:02;13.40;1.00
59857;DHT22;45733;52.668;6.860;2024-02-21T13:44:28;13.40;1.00
59857;DHT22;45733;52.668;6.860;2024-02-21T13:46:53;13.40;1.00
59857;DHT22;45733;52.668;6.860;2024-02-21T13:49:22;13.40;1.00
59857;DHT22;45733;52.668;6.860;2024-02-21T13:51:48;13.40;1.00
59857;DHT22;45733;52.668;6.860;2024-02-21T13:54:14;13.40;1.00
59857;DHT22;45733;52.668;6.860;2024-02-21T13:56:45;13.30;1.00
59857;DHT22;45733;52.668;6.860;2024-02-21T13:59:15;13.40;1.00
59857;DHT22;45733;52.668;6.860;2024-02-21T14:01:41;13.40;1.00
59857;DHT22;45733;52.668;6.860;2024-02-21T14:04:08;13.40;1.00
59857;DHT22;45733;52.668;6.860;2024-02-21T14:06:34;13.40;1.00
59857;DHT22;45733;52.668;6.860;2024-02-21T14:08:59;13.30;1.00
59857;DHT22;45733;52.668;6.860;2024-02-21T14:11:25;13.30;1.00
59857;DHT22;45733;52.668;6.860;2024-02-21T14:13:52;13.30;99.90
59857;DHT22;45733;52.668;6.860;2024-02-21T14:16:18;13.30;1.00
59857;DHT22;45733;52.668;6.860;2024-02-21T14:18:44;13.20;99.90
59857;DHT22;45733;52.668;6.860;2024-02-21T14:21:10;13.30;1.00
59857;DHT22;45733;52.668;6.860;2024-02-21T14:23:39;13.20;99.90
59857;DHT22;45733;52.668;6.860;2024-02-21T14:26:05;13.10;99.90
59857;DHT22;45733;52.668;6.860;2024-02-21T14:28:32;13.00;99.90
59857;DHT22;45733;52.668;6.860;2024-02-21T14:30:59;13.10;99.90
59857;DHT22;45733;52.668;6.860;2024-02-21T14:33:26;13.10;1.00
59857;DHT22;45733;52.668;6.860;2024-02-21T14:35:52;13.10;1.00
59857;DHT22;45733;52.668;6.860;2024-02-21T14:38:19;13.00;99.90
59857;DHT22;45733;52.668;6.860;2024-02-21T14:40:45;13.10;99.90
59857;DHT22;45733;52.668;6.860;2024-02-21T14:43:11;13.00;1.00
59857;DHT22;45733;52.668;6.860;2024-02-21T14:45:37;13.00;1.00
59857;DHT22;45733;52.668;6.860;2024-02-21T14:48:04;13.00;99.90
59857;DHT22;45733;52.668;6.860;2024-02-21T14:50:30;13.00;99.90
59857;DHT22;45733;52.668;6.860;2024-02-21T14:52:56;13.00;99.90
59857;DHT22;45733;52.668;6.860;2024-02-21T14:55:22;13.00;99.90
59857;DHT22;45733;52.668;6.860;2024-02-21T14:57:48;13.00;99.90
59857;DHT22;45733;52.668;6.860;2024-02-21T15:00:14;13.00;1.00
59857;DHT22;45733;52.668;6.860;2024-02-21T15:02:49;13.00;1.00
59857;DHT22;45733;52.668;6.860;2024-02-21T15:05:15;13.00;1.00
59857;DHT22;45733;52.668;6.860;2024-02-21T15:07:40;13.00;99.90
59857;DHT22;45733;52.668;6.860;2024-02-21T15:10:06;13.00;99.90
59857;DHT22;45733;52.668;6.860;2024-02-21T15:12:32;13.00;99.90
59857;DHT22;45733;52.668;6.860;2024-02-21T15:14:57;13.00;99.90
59857;DHT22;45733;52.668;6.860;2024-02-21T15:17:24;13.00;99.90
59857;DHT22;45733;52.668;6.860;2024-02-21T15:19:51;13.00;99.90
59857;DHT22;45733;52.668;6.860;2024-02-21T15:22:20;13.00;99.90
59857;DHT22;45733;52.668;6.860;2024-02-21T15:24:47;12.90;99.90
59857;DHT22;45733;52.668;6.860;2024-02-21T15:27:14;12.90;99.90
59857;DHT22;45733;52.668;6.860;2024-02-21T15:29:40;13.00;99.90
59857;DHT22;45733;52.668;6.860;2024-02-21T15:32:06;13.00;99.90
59857;DHT22;45733;52.668;6.860;2024-02-21T15:34:35;12.90;99.90
59857;DHT22;45733;52.668;6.860;2024-02-21T15:37:02;12.90;99.90
59857;DHT22;45733;52.668;6.860;2024-02-21T15:39:29;12.90;99.90
59857;DHT22;45733;52.668;6.860;2024-02-21T15:41:55;12.90;99.90